Time;durP1;ratioP1;P1;durP2;ratioP2;P2;SDS_P1;SDS_P2;PMS_P1;PMS_P2;Temp;Humidity;BMP_temperature;BMP_pressure;BME280_temperature;BME280_humidity;BME280_pressure;Samples;Min_cycle;Max_cycle;Signal;HPM_P1;HPM_P2
2021/10/27 00:02:11;;;;;;;2.95;2.65;;;;;;;19.87;60.58;101375.33;;;;-51
2021/10/27 00:05:13;;;;;;;2.95;2.59;;;;;;;19.87;60.62;101381.11;;;;-51
2021/10/27 00:08:11;;;;;;;2.51;2.31;;;;;;;19.85;60.60;101376.67;;;;-51
2021/10/27 00:11:11;;;;;;;3.15;2.59;;;;;;;19.85;60.54;101379.19;;;;-51
2021/10/27 00:14:11;;;;;;;2.75;2.51;;;;;;;19.84;60.59;101381.68;;;;-52
2021/10/27 00:17:11;;;;;;;2.60;2.40;;;;;;;19.82;60.65;101375.89;;;;-52
2021/10/27 00:20:11;;;;;;;3.63;2.71;;;;;;;19.81;60.57;101380.50;;;;-51
2021/10/27 00:23:11;;;;;;;2.57;2.37;;;;;;;19.81;60.61;101380.98;;;;-51
2021/10/27 00:26:11;;;;;;;2.54;2.34;;;;;;;19.79;60.60;101384.77;;;;-51
2021/10/27 00:29:11;;;;;;;2.85;2.60;;;;;;;19.79;60.58;101382.98;;;;-51
2021/10/27 00:32:11;;;;;;;2.81;2.57;;;;;;;19.78;60.60;101385.98;;;;-51
2021/10/27 00:35:11;;;;;;;3.17;2.65;;;;;;;19.77;60.62;101385.54;;;;-51
2021/10/27 00:38:11;;;;;;;2.65;2.45;;;;;;;19.76;60.61;101386.03;;;;-51
2021/10/27 00:41:11;;;;;;;2.71;2.51;;;;;;;19.75;60.61;101390.78;;;;-51
2021/10/27 00:44:11;;;;;;;2.59;2.37;;;;;;;19.75;60.69;101390.22;;;;-51
2021/10/27 00:47:11;;;;;;;2.72;2.51;;;;;;;19.74;60.58;101382.33;;;;-51
2021/10/27 00:50:11;;;;;;;3.29;2.51;;;;;;;19.73;60.57;101379.03;;;;-51
2021/10/27 00:53:11;;;;;;;2.55;2.32;;;;;;;19.72;60.65;101384.31;;;;-58
2021/10/27 00:56:11;;;;;;;2.97;2.50;;;;;;;19.72;60.62;101386.10;;;;-58
2021/10/27 00:59:11;;;;;;;2.71;2.51;;;;;;;19.71;60.62;101389.81;;;;-58
2021/10/27 01:02:11;;;;;;;3.23;2.59;;;;;;;19.70;60.59;101395.95;;;;-58
2021/10/27 01:05:12;;;;;;;3.11;2.46;;;;;;;19.69;60.62;101396.41;;;;-58
2021/10/27 01:08:11;;;;;;;2.99;2.51;;;;;;;19.68;60.72;101399.41;;;;-58
2021/10/27 01:11:11;;;;;;;2.43;2.23;;;;;;;19.67;60.66;101399.89;;;;-57
2021/10/27 01:14:11;;;;;;;2.67;2.46;;;;;;;19.66;60.66;101397.50;;;;-58
2021/10/27 01:17:11;;;;;;;2.63;2.43;;;;;;;19.66;60.71;101399.53;;;;-58
2021/10/27 01:20:11;;;;;;;2.70;2.50;;;;;;;19.64;60.66;101397.13;;;;-57
2021/10/27 01:23:11;;;;;;;2.69;2.49;;;;;;;19.64;60.71;101399.41;;;;-57
2021/10/27 01:26:12;;;;;;;2.54;2.31;;;;;;;19.64;60.67;101397.62;;;;-57
2021/10/27 01:29:11;;;;;;;2.67;2.45;;;;;;;19.62;60.65;101392.70;;;;-58
2021/10/27 01:32:11;;;;;;;2.60;2.40;;;;;;;19.63;60.66;101391.16;;;;-57
2021/10/27 01:35:11;;;;;;;2.51;2.31;;;;;;;19.61;60.67;101395.42;;;;-57
2021/10/27 01:38:11;;;;;;;2.57;2.37;;;;;;;19.60;60.68;101390.86;;;;-57
2021/10/27 01:41:11;;;;;;;2.66;2.46;;;;;;;19.60;60.64;101385.01;;;;-57
2021/10/27 01:44:11;;;;;;;2.59;2.39;;;;;;;19.60;60.70;101377.37;;;;-57
2021/10/27 01:47:11;;;;;;;2.61;2.41;;;;;;;19.58;60.77;101377.41;;;;-58
2021/10/27 01:50:11;;;;;;;2.51;2.31;;;;;;;19.58;60.70;101377.48;;;;-56
2021/10/27 01:53:11;;;;;;;2.55;2.35;;;;;;;19.57;60.71;101373.50;;;;-58
2021/10/27 01:56:11;;;;;;;2.55;2.35;;;;;;;19.56;60.68;101364.68;;;;-57
2021/10/27 01:59:11;;;;;;;2.76;2.39;;;;;;;19.56;60.66;101366.88;;;;-57
2021/10/27 02:02:11;;;;;;;2.62;2.42;;;;;;;19.56;60.68;101359.80;;;;-57
2021/10/27 02:05:11;;;;;;;2.61;2.39;;;;;;;19.55;60.69;101361.83;;;;-57
2021/10/27 02:08:11;;;;;;;2.77;2.57;;;;;;;19.54;60.63;101361.95;;;;-56
2021/10/27 02:11:11;;;;;;;2.40;2.20;;;;;;;19.54;60.66;101366.18;;;;-56
2021/10/27 02:14:11;;;;;;;2.76;2.55;;;;;;;19.53;60.70;101376.17;;;;-50
2021/10/27 02:17:11;;;;;;;2.55;2.35;;;;;;;19.53;60.74;101378.17;;;;-50
2021/10/27 02:20:11;;;;;;;2.45;2.25;;;;;;;19.51;60.66;101375.97;;;;-50
2021/10/27 02:23:11;;;;;;;2.55;2.35;;;;;;;19.52;60.72;101378.17;;;;-50
2021/10/27 02:26:11;;;;;;;2.42;2.22;;;;;;;19.50;60.78;101379.52;;;;-51
2021/10/27 02:29:11;;;;;;;2.47;2.21;;;;;;;19.50;60.76;101380.08;;;;-51
2021/10/27 02:32:11;;;;;;;2.37;2.17;;;;;;;19.49;60.75;101374.06;;;;-50
2021/10/27 02:35:11;;;;;;;2.37;2.17;;;;;;;19.49;60.72;101370.73;;;;-49
2021/10/27 02:38:11;;;;;;;2.45;2.25;;;;;;;19.48;60.72;101370.45;;;;-51
2021/10/27 02:41:11;;;;;;;2.50;2.30;;;;;;;19.48;60.79;101371.26;;;;-50
2021/10/27 02:44:11;;;;;;;2.51;2.31;;;;;;;19.47;60.81;101369.06;;;;-50
2021/10/27 02:47:11;;;;;;;2.47;2.27;;;;;;;19.46;60.78;101370.16;;;;-50
2021/10/27 02:50:11;;;;;;;2.50;2.30;;;;;;;19.46;60.74;101374.62;;;;-50
2021/10/27 02:53:11;;;;;;;2.61;2.41;;;;;;;19.46;60.77;101378.77;;;;-50
2021/10/27 02:56:11;;;;;;;2.80;2.54;;;;;;;19.45;60.77;101376.98;;;;-50
2021/10/27 02:59:11;;;;;;;2.40;2.20;;;;;;;19.44;60.80;101377.22;;;;-50
2021/10/27 03:02:11;;;;;;;2.39;2.19;;;;;;;19.44;60.84;101377.71;;;;-50
2021/10/27 03:05:11;;;;;;;2.33;2.13;;;;;;;19.44;60.76;101378.73;;;;-50
2021/10/27 03:08:11;;;;;;;2.48;2.28;;;;;;;19.44;60.70;101381.17;;;;-50
2021/10/27 03:11:12;;;;;;;3.31;2.15;;;;;;;19.42;60.79;101377.34;;;;-50
2021/10/27 03:14:11;;;;;;;2.30;2.10;;;;;;;19.42;60.83;101377.83;;;;-57
2021/10/27 03:17:11;;;;;;;2.28;2.09;;;;;;;19.42;60.83;101377.95;;;;-58
2021/10/27 03:20:11;;;;;;;2.51;2.31;;;;;;;19.42;60.83;101379.17;;;;-58
2021/10/27 03:23:11;;;;;;;2.50;2.30;;;;;;;19.41;60.79;101383.72;;;;-57
2021/10/27 03:26:11;;;;;;;2.43;2.23;;;;;;;19.41;60.72;101382.75;;;;-57
2021/10/27 03:29:11;;;;;;;2.36;2.16;;;;;;;19.40;60.78;101390.59;;;;-58
2021/10/27 03:32:11;;;;;;;2.50;2.30;;;;;;;19.39;60.80;101392.05;;;;-57
2021/10/27 03:35:11;;;;;;;2.49;2.29;;;;;;;19.38;60.76;101390.83;;;;-57
2021/10/27 03:38:11;;;;;;;2.75;2.31;;;;;;;19.38;60.82;101392.09;;;;-58
2021/10/27 03:41:13;;;;;;;2.35;2.15;;;;;;;19.38;60.81;101391.97;;;;-58
2021/10/27 03:44:11;;;;;;;2.40;2.20;;;;;;;19.37;60.83;101394.28;;;;-58
2021/10/27 03:47:11;;;;;;;2.51;2.28;;;;;;;19.38;60.81;101394.70;;;;-57
2021/10/27 03:50:14;;;;;;;2.35;2.15;;;;;;;19.38;60.80;101391.20;;;;-57
2021/10/27 03:53:11;;;;;;;2.19;2.02;;;;;;;19.36;60.83;101389.56;;;;-57
2021/10/27 03:56:11;;;;;;;2.34;2.14;;;;;;;19.36;60.75;101392.05;;;;-57
2021/10/27 03:59:11;;;;;;;2.27;2.07;;;;;;;19.35;60.86;101391.72;;;;-56
2021/10/27 04:02:11;;;;;;;2.30;2.10;;;;;;;19.35;60.81;101391.80;;;;-57
2021/10/27 04:05:11;;;;;;;2.40;2.20;;;;;;;19.34;60.79;101390.66;;;;-57
2021/10/27 04:08:11;;;;;;;2.04;1.91;;;;;;;19.34;60.80;101392.09;;;;-50
2021/10/27 04:11:11;;;;;;;2.39;2.19;;;;;;;19.34;60.84;101393.95;;;;-50
2021/10/27 04:14:11;;;;;;;2.48;2.28;;;;;;;19.33;60.86;101397.69;;;;-50
2021/10/27 04:17:11;;;;;;;2.41;2.21;;;;;;;19.32;60.83;101398.50;;;;-50
2021/10/27 04:20:11;;;;;;;2.30;2.10;;;;;;;19.32;60.80;101399.71;;;;-50
2021/10/27 04:23:11;;;;;;;2.42;2.21;;;;;;;19.32;60.87;101400.69;;;;-50
2021/10/27 04:26:11;;;;;;;2.39;2.19;;;;;;;19.32;60.89;101400.66;;;;-51
2021/10/27 04:29:11;;;;;;;2.40;2.20;;;;;;;19.30;60.83;101398.91;;;;-50
2021/10/27 04:32:11;;;;;;;2.20;2.00;;;;;;;19.29;60.88;101397.36;;;;-50
2021/10/27 04:35:11;;;;;;;2.27;2.07;;;;;;;19.29;60.88;101398.66;;;;-50
2021/10/27 04:38:11;;;;;;;2.33;2.13;;;;;;;19.30;60.84;101400.53;;;;-50
2021/10/27 04:41:11;;;;;;;2.31;2.11;;;;;;;19.29;60.86;101399.55;;;;-58
2021/10/27 04:44:11;;;;;;;2.32;2.12;;;;;;;19.27;60.91;101400.00;;;;-58
2021/10/27 04:47:11;;;;;;;8.09;2.98;;;;;;;19.22;59.33;101402.82;;;;-58
2021/10/27 04:50:11;;;;;;;4.73;2.93;;;;;;;19.15;58.39;101409.17;;;;-58
2021/10/27 04:53:11;;;;;;;4.05;2.89;;;;;;;19.09;57.83;101409.73;;;;-58
2021/10/27 04:56:11;;;;;;;3.60;3.07;;;;;;;19.05;57.44;101416.30;;;;-58
2021/10/27 04:59:11;;;;;;;3.53;3.21;;;;;;;19.01;56.96;101415.95;;;;-58
2021/10/27 05:02:11;;;;;;;3.45;3.06;;;;;;;18.96;56.92;101417.16;;;;-58
2021/10/27 05:05:11;;;;;;;4.98;3.38;;;;;;;18.91;56.48;101416.56;;;;-57
2021/10/27 05:08:11;;;;;;;4.71;3.39;;;;;;;18.94;57.20;101417.52;;;;-57
2021/10/27 05:11:11;;;;;;;4.73;3.17;;;;;;;18.96;57.83;101412.45;;;;-58
2021/10/27 05:14:11;;;;;;;3.79;2.75;;;;;;;18.99;58.18;101414.80;;;;-57
2021/10/27 05:17:12;;;;;;;3.86;2.66;;;;;;;19.03;58.20;101412.75;;;;-48
2021/10/27 05:20:11;;;;;;;3.35;2.67;;;;;;;19.05;58.53;101406.66;;;;-45
2021/10/27 05:23:11;;;;;;;3.90;2.57;;;;;;;19.07;58.77;101409.69;;;;-55
2021/10/27 05:26:11;;;;;;;3.79;2.59;;;;;;;19.08;58.93;101409.56;;;;-51
2021/10/27 05:29:11;;;;;;;6.26;2.51;;;;;;;19.09;59.09;101407.09;;;;-51
2021/10/27 05:32:11;;;;;;;5.58;2.49;;;;;;;19.11;59.10;101409.45;;;;-50
2021/10/27 05:35:11;;;;;;;2.89;2.30;;;;;;;19.11;59.16;101407.34;;;;-51
2021/10/27 05:38:11;;;;;;;2.61;2.41;;;;;;;19.12;59.22;101411.28;;;;-50
2021/10/27 05:41:11;;;;;;;3.02;2.27;;;;;;;19.12;59.24;101410.30;;;;-51
2021/10/27 05:44:11;;;;;;;2.99;2.55;;;;;;;19.12;59.29;101410.31;;;;-50
2021/10/27 05:47:11;;;;;;;4.81;2.43;;;;;;;19.11;59.36;101412.01;;;;-50
2021/10/27 05:50:26;;;;;;;3.21;2.45;;;;;;;19.12;59.35;101410.71;;;;-52
2021/10/27 05:56:11;;;;;;;2.91;2.37;;;;;;;19.12;59.46;101406.23;;;;-51
2021/10/27 05:59:11;;;;;;;2.91;2.41;;;;;;;19.10;59.51;101408.55;;;;-59
2021/10/27 06:02:11;;;;;;;2.21;2.05;;;;;;;19.10;59.56;101411.56;;;;-58
2021/10/27 06:05:11;;;;;;;2.65;2.37;;;;;;;19.11;59.60;101416.84;;;;-58
2021/10/27 06:08:13;;;;;;;2.40;2.20;;;;;;;19.11;59.61;101414.61;;;;-58
2021/10/27 06:11:13;;;;;;;3.19;2.15;;;;;;;19.11;59.59;101419.13;;;;-58
2021/10/27 06:14:11;;;;;;;2.33;2.10;;;;;;;19.10;59.64;101423.42;;;;-58
2021/10/27 06:17:11;;;;;;;2.80;2.20;;;;;;;19.10;59.61;101425.94;;;;-58
2021/10/27 06:20:11;;;;;;;2.39;2.19;;;;;;;19.09;59.73;101430.81;;;;-57
2021/10/27 06:23:11;;;;;;;6.05;2.39;;;;;;;19.09;59.73;101431.02;;;;-58
2021/10/27 06:26:12;;;;;;;2.52;2.27;;;;;;;19.08;59.86;101433.28;;;;-58
2021/10/27 06:29:15;;;;;;;3.95;2.27;;;;;;;19.08;59.78;101430.11;;;;-58
2021/10/27 06:32:19;;;;;;;2.31;2.11;;;;;;;19.09;59.79;101429.88;;;;-58
2021/10/27 06:35:14;;;;;;;2.49;2.18;;;;;;;19.09;59.87;101431.91;;;;-51
2021/10/27 06:48:11;;;;;;;2.35;2.15;;;;;;;19.08;59.94;101446.69;;;;-51
2021/10/27 06:51:11;;;;;;;2.56;2.26;;;;;;;19.08;59.89;101449.29;;;;-50
2021/10/27 06:54:11;;;;;;;2.17;1.97;;;;;;;19.07;59.96;101447.83;;;;-51
2021/10/27 06:57:11;;;;;;;2.41;2.21;;;;;;;19.08;59.89;101450.75;;;;-51
2021/10/27 07:00:20;;;;;;;2.18;1.98;;;;;;;19.08;59.96;101451.33;;;;-59
2021/10/27 07:04:01;;;;;;;2.21;2.01;;;;;;;19.07;60.03;101454.37;;;;-59
2021/10/27 07:06:34;;;;;;;2.95;2.11;;;;;;;19.07;60.00;101459.12;;;;-59
2021/10/27 07:15:17;;;;;;;2.69;2.14;;;;;;;19.06;59.99;101466.06;;;;-59
2021/10/27 07:18:11;;;;;;;2.36;1.97;;;;;;;19.06;60.03;101469.48;;;;-58
2021/10/27 07:21:11;;;;;;;2.47;2.03;;;;;;;19.07;60.01;101476.34;;;;-58
2021/10/27 07:24:11;;;;;;;2.51;2.05;;;;;;;19.07;60.01;101474.44;;;;-58
2021/10/27 07:27:11;;;;;;;2.38;2.18;;;;;;;19.06;60.02;101477.68;;;;-58
2021/10/27 07:30:11;;;;;;;4.07;2.24;;;;;;;19.06;60.05;101479.39;;;;-57
2021/10/27 07:33:11;;;;;;;3.36;2.18;;;;;;;19.06;60.03;101485.16;;;;-59
2021/10/27 07:36:25;;;;;;;2.15;1.95;;;;;;;19.07;60.05;101488.41;;;;-59
2021/10/27 07:43:14;;;;;;;2.30;2.10;;;;;;;19.06;60.08;101494.25;;;;-58
2021/10/27 07:46:11;;;;;;;2.49;2.07;;;;;;;19.06;60.10;101499.62;;;;-58
2021/10/27 07:49:11;;;;;;;2.03;1.87;;;;;;;19.06;60.12;101499.70;;;;-58
2021/10/27 07:52:11;;;;;;;2.00;1.90;;;;;;;19.06;60.12;101499.45;;;;-57
2021/10/27 07:55:11;;;;;;;2.25;2.05;;;;;;;19.06;60.14;101500.59;;;;-59
2021/10/27 07:58:11;;;;;;;2.09;1.89;;;;;;;19.05;60.10;101498.63;;;;-58
2021/10/27 08:01:11;;;;;;;2.20;2.00;;;;;;;19.05;60.11;101496.52;;;;-58
2021/10/27 08:04:11;;;;;;;2.20;1.97;;;;;;;19.06;60.13;101499.61;;;;-58
2021/10/27 08:07:11;;;;;;;2.17;1.97;;;;;;;19.05;60.16;101501.88;;;;-59
2021/10/27 08:10:11;;;;;;;5.55;2.20;;;;;;;19.05;60.30;101499.36;;;;-57
2021/10/27 08:13:11;;;;;;;2.86;2.11;;;;;;;19.06;60.26;101502.14;;;;-55
2021/10/27 08:16:11;;;;;;;2.39;2.03;;;;;;;19.09;60.53;101504.38;;;;-52
2021/10/27 08:19:11;;;;;;;2.35;2.05;;;;;;;19.12;60.74;101503.83;;;;-53
2021/10/27 08:22:11;;;;;;;2.56;1.99;;;;;;;19.15;60.80;101508.84;;;;-52
2021/10/27 08:25:18;;;;;;;2.55;2.12;;;;;;;19.20;60.81;101507.03;;;;-55
2021/10/27 08:28:12;;;;;;;2.81;2.01;;;;;;;19.25;60.93;101503.16;;;;-51
2021/10/27 08:31:17;;;;;;;1.96;1.71;;;;;;;19.29;60.94;101503.42;;;;-50
2021/10/27 08:34:16;;;;;;;2.15;1.87;;;;;;;19.34;60.96;101505.47;;;;-50
2021/10/27 08:37:11;;;;;;;5.30;2.03;;;;;;;19.37;61.08;101498.58;;;;-50
2021/10/27 08:40:11;;;;;;;2.21;1.90;;;;;;;19.42;61.13;101497.53;;;;-52
2021/10/27 08:43:12;;;;;;;2.97;1.98;;;;;;;19.45;61.13;101492.58;;;;-52
2021/10/27 08:46:11;;;;;;;2.51;1.99;;;;;;;19.47;61.12;101496.70;;;;-51
2021/10/27 08:49:11;;;;;;;2.16;1.87;;;;;;;19.49;61.05;101490.65;;;;-47
2021/10/27 08:52:25;;;;;;;3.67;2.25;;;;;;;19.53;61.12;101495.38;;;;-45
2021/10/27 08:55:13;;;;;;;3.23;2.19;;;;;;;19.56;61.17;101492.98;;;;-48
2021/10/27 08:58:14;;;;;;;2.94;1.90;;;;;;;19.59;61.26;101490.63;;;;-47
2021/10/27 09:01:16;;;;;;;2.13;1.89;;;;;;;19.64;61.17;101489.59;;;;-50
2021/10/27 09:04:21;;;;;;;2.31;2.11;;;;;;;19.69;61.22;101491.88;;;;-47
2021/10/27 09:07:20;;;;;;;2.21;1.89;;;;;;;19.74;61.41;101489.92;;;;-47
2021/10/27 09:14:43;;;;;;;2.95;1.84;;;;;;;19.80;61.19;101486.80;;;;-51
2021/10/27 09:35:31;;;;;;;4.17;1.90;;;;;;;20.00;60.42;101455.88;;;;-51
2021/10/27 09:38:42;;;;;;;7.22;2.22;;;;;;;20.02;60.39;101453.48;;;;-52
2021/10/27 09:44:55;;;;;;;5.99;2.65;;;;;;;20.02;60.06;101449.66;;;;-55
2021/10/27 09:56:27;;;;;;;4.09;2.50;;;;;;;20.04;59.64;101446.77;;;;-47
2021/10/27 10:05:12;;;;;;;10.74;2.63;;;;;;;20.05;59.75;101434.43;;;;-45
2021/10/27 10:08:11;;;;;;;4.18;2.47;;;;;;;20.06;59.68;101432.16;;;;-46
2021/10/27 10:11:11;;;;;;;4.87;2.45;;;;;;;20.06;59.58;101429.23;;;;-47
2021/10/27 10:14:11;;;;;;;4.66;2.41;;;;;;;20.06;59.74;101429.31;;;;-54
2021/10/27 10:17:11;;;;;;;5.19;2.43;;;;;;;20.06;59.67;101428.41;;;;-55
2021/10/27 10:20:11;;;;;;;3.88;2.25;;;;;;;20.06;59.65;101431.19;;;;-54
2021/10/27 10:23:11;;;;;;;3.83;2.30;;;;;;;20.07;59.63;101431.46;;;;-54
2021/10/27 10:26:12;;;;;;;5.07;2.57;;;;;;;20.07;59.60;101430.64;;;;-51
2021/10/27 10:29:11;;;;;;;3.45;2.43;;;;;;;20.06;59.60;101424.67;;;;-54
2021/10/27 10:32:11;;;;;;;4.76;2.41;;;;;;;20.06;59.54;101423.13;;;;-53
2021/10/27 10:35:11;;;;;;;3.20;2.33;;;;;;;20.08;59.49;101423.09;;;;-55
2021/10/27 10:38:17;;;;;;;2.71;2.12;;;;;;;20.09;59.56;101419.95;;;;-56
2021/10/27 10:41:35;;;;;;;4.55;2.38;;;;;;;20.08;59.58;101421.54;;;;-56
2021/10/27 10:56:52;;;;;;;3.25;2.21;;;;;;;20.08;59.63;101417.88;;;;-51
2021/10/27 10:59:36;;;;;;;3.21;2.17;;;;;;;20.08;59.63;101414.86;;;;-51
2021/10/27 11:03:28;;;;;;;2.63;2.29;;;;;;;20.07;59.57;101406.80;;;;-53
2021/10/27 11:24:15;;;;;;;2.88;1.89;;;;;;;20.05;59.66;101384.06;;;;-57
2021/10/27 11:39:31;;;;;;;2.10;1.90;;;;;;;20.03;59.70;101369.54;;;;-57
2021/10/27 11:42:17;;;;;;;2.25;1.86;;;;;;;20.03;59.70;101366.45;;;;-52
2021/10/27 11:45:13;;;;;;;2.19;1.95;;;;;;;20.03;59.69;101358.47;;;;-52
2021/10/27 11:48:16;;;;;;;2.23;1.99;;;;;;;20.02;59.69;101353.15;;;;-51
2021/10/27 11:51:12;;;;;;;2.55;2.04;;;;;;;20.02;59.69;101354.61;;;;-52
2021/10/27 11:54:11;;;;;;;2.21;2.01;;;;;;;20.02;59.67;101357.55;;;;-52
2021/10/27 11:57:11;;;;;;;2.25;1.88;;;;;;;20.02;59.72;101351.69;;;;-51
2021/10/27 12:00:11;;;;;;;3.11;2.00;;;;;;;20.02;59.71;101348.75;;;;-55
2021/10/27 12:03:12;;;;;;;3.46;1.93;;;;;;;20.02;59.67;101347.38;;;;-55
2021/10/27 12:06:14;;;;;;;3.09;2.09;;;;;;;20.02;59.73;101337.77;;;;-57
2021/10/27 12:09:24;;;;;;;2.40;2.01;;;;;;;20.01;59.75;101335.08;;;;-57
2021/10/27 12:12:18;;;;;;;2.11;1.91;;;;;;;20.01;59.72;101330.04;;;;-57
2021/10/27 12:15:29;;;;;;;2.79;1.90;;;;;;;20.01;59.67;101327.92;;;;-57
2021/10/27 12:18:11;;;;;;;2.18;1.81;;;;;;;20.01;59.73;101320.03;;;;-58
2021/10/27 12:21:11;;;;;;;4.47;2.01;;;;;;;20.02;59.87;101317.67;;;;-60
2021/10/27 12:24:11;;;;;;;4.65;2.15;;;;;;;20.04;59.96;101312.83;;;;-60
2021/10/27 12:27:15;;;;;;;2.35;1.92;;;;;;;20.06;60.02;101309.61;;;;-52
2021/10/27 12:30:11;;;;;;;2.35;1.87;;;;;;;20.08;60.03;101306.72;;;;-53
2021/10/27 12:33:11;;;;;;;2.80;2.00;;;;;;;20.12;60.15;101300.20;;;;-52
2021/10/27 12:36:12;;;;;;;2.64;1.89;;;;;;;20.14;60.20;101297.38;;;;-49
2021/10/27 12:39:13;;;;;;;1.83;1.67;;;;;;;20.17;60.32;101294.41;;;;-57
2021/10/27 12:42:12;;;;;;;2.80;1.69;;;;;;;20.19;60.14;101289.52;;;;-57
2021/10/27 12:45:11;;;;;;;3.17;2.00;;;;;;;20.20;60.06;101291.37;;;;-60
2021/10/27 12:48:11;;;;;;;8.75;2.29;;;;;;;20.23;59.69;101286.12;;;;-60
2021/10/27 12:51:11;;;;;;;3.81;2.05;;;;;;;20.24;59.73;101278.91;;;;-59
2021/10/27 12:54:11;;;;;;;3.26;2.05;;;;;;;20.25;59.76;101275.25;;;;-49
2021/10/27 12:57:11;;;;;;;2.37;1.95;;;;;;;20.26;59.77;101278.95;;;;-49
2021/10/27 13:00:11;;;;;;;3.90;2.03;;;;;;;20.27;59.75;101277.81;;;;-48
2021/10/27 13:04:21;;;;;;;2.39;1.83;;;;;;;20.27;59.76;101274.18;;;;-48
2021/10/27 13:07:15;;;;;;;2.50;1.87;;;;;;;20.28;59.76;101269.62;;;;-51
2021/10/27 13:10:34;;;;;;;3.22;2.00;;;;;;;20.28;59.77;101271.41;;;;-50
2021/10/27 13:13:30;;;;;;;2.57;1.89;;;;;;;20.30;59.81;101269.41;;;;-52
2021/10/27 13:16:28;;;;;;;2.39;1.94;;;;;;;20.30;59.79;101268.92;;;;-52
2021/10/27 13:19:22;;;;;;;2.19;1.87;;;;;;;20.32;59.77;101268.47;;;;-52
2021/10/27 13:22:24;;;;;;;2.31;1.80;;;;;;;20.32;59.82;101261.63;;;;-52
2021/10/27 13:31:13;;;;;;;2.88;1.75;;;;;;;20.32;59.75;101255.52;;;;-53
2021/10/27 13:34:11;;;;;;;3.26;1.88;;;;;;;20.34;59.78;101250.59;;;;-52
2021/10/27 13:37:11;;;;;;;3.37;1.95;;;;;;;20.34;59.78;101245.30;;;;-52
2021/10/27 13:40:11;;;;;;;1.99;1.76;;;;;;;20.34;59.80;101240.82;;;;-52
2021/10/27 13:43:14;;;;;;;2.45;1.82;;;;;;;20.35;59.78;101238.78;;;;-53
2021/10/27 13:46:35;;;;;;;1.86;1.73;;;;;;;20.36;59.79;101234.66;;;;-49
2021/10/27 14:07:17;;;;;;;2.05;1.71;;;;;;;20.42;59.89;101221.89;;;;-60
2021/10/27 14:10:13;;;;;;;2.07;1.63;;;;;;;20.42;59.83;101222.55;;;;-52
2021/10/27 14:13:21;;;;;;;1.95;1.70;;;;;;;20.43;59.83;101218.31;;;;-52
2021/10/27 14:16:25;;;;;;;1.92;1.74;;;;;;;20.43;59.87;101216.59;;;;-51
2021/10/27 14:19:28;;;;;;;1.89;1.65;;;;;;;20.44;59.82;101215.22;;;;-52
2021/10/27 14:41:40;;;;;;;1.75;1.65;;;;;;;20.47;59.84;101205.09;;;;-59
2021/10/27 15:22:14;;;;;;;6.62;2.05;;;;;;;20.54;59.43;101166.75;;;;-51
2021/10/27 15:33:22;;;;;;;4.16;1.91;;;;;;;20.54;59.19;101162.11;;;;-46
2021/10/27 15:36:19;;;;;;;4.08;2.03;;;;;;;20.54;59.26;101159.91;;;;-47
2021/10/27 15:40:27;;;;;;;4.87;1.95;;;;;;;20.54;59.11;101156.98;;;;-46
2021/10/27 15:44:36;;;;;;;4.83;1.83;;;;;;;20.54;59.13;101155.52;;;;-45
2021/10/27 15:53:11;;;;;;;3.22;1.80;;;;;;;20.59;59.19;101157.01;;;;-47
2021/10/27 15:56:11;;;;;;;3.75;1.71;;;;;;;20.61;59.18;101157.03;;;;-46
2021/10/27 15:59:11;;;;;;;3.54;1.78;;;;;;;20.64;59.37;101155.84;;;;-54
2021/10/27 16:02:11;;;;;;;2.23;1.66;;;;;;;20.67;59.36;101152.14;;;;-54
2021/10/27 16:05:11;;;;;;;3.77;1.90;;;;;;;20.70;59.28;101149.97;;;;-56
2021/10/27 16:08:11;;;;;;;7.11;1.98;;;;;;;20.72;59.15;101149.67;;;;-52
2021/10/27 16:11:11;;;;;;;5.53;1.94;;;;;;;20.74;59.46;101152.55;;;;-57
2021/10/27 16:14:11;;;;;;;3.93;1.81;;;;;;;20.74;59.59;101151.16;;;;-49
2021/10/27 16:17:11;;;;;;;4.55;1.77;;;;;;;20.78;59.70;101155.53;;;;-54
2021/10/27 16:20:11;;;;;;;7.75;1.77;;;;;;;20.78;59.53;101151.29;;;;-54
2021/10/27 16:23:11;;;;;;;10.05;1.89;;;;;;;20.79;59.83;101143.39;;;;-54
2021/10/27 16:26:11;;;;;;;6.54;1.84;;;;;;;20.81;59.81;101146.67;;;;-54
2021/10/27 16:29:11;;;;;;;8.01;1.91;;;;;;;20.83;59.85;101146.78;;;;-55
2021/10/27 16:32:11;;;;;;;3.67;1.70;;;;;;;20.85;59.82;101143.13;;;;-52
2021/10/27 16:35:11;;;;;;;2.67;2.00;;;;;;;20.88;59.93;101146.28;;;;-50
2021/10/27 16:38:11;;;;;;;4.03;1.80;;;;;;;20.89;59.91;101146.52;;;;-49
2021/10/27 16:41:51;;;;;;;6.91;1.85;;;;;;;20.91;59.91;101147.03;;;;-45
2021/10/27 16:44:15;;;;;;;4.69;2.14;;;;;;;20.95;59.90;101151.00;;;;-45
2021/10/27 16:47:15;;;;;;;3.46;1.87;;;;;;;20.97;59.83;101156.96;;;;-45
2021/10/27 16:50:11;;;;;;;3.33;1.80;;;;;;;20.99;59.93;101151.69;;;;-50
2021/10/27 16:53:11;;;;;;;2.57;1.67;;;;;;;20.99;60.04;101153.56;;;;-48
2021/10/27 16:56:11;;;;;;;4.73;1.81;;;;;;;21.02;59.97;101155.38;;;;-51
2021/10/27 16:59:11;;;;;;;3.61;1.85;;;;;;;21.02;59.94;101155.33;;;;-53
2021/10/27 17:02:11;;;;;;;3.00;1.59;;;;;;;21.04;59.93;101157.36;;;;-53
2021/10/27 17:05:11;;;;;;;2.41;1.63;;;;;;;21.04;60.00;101150.67;;;;-49
2021/10/27 17:08:16;;;;;;;4.58;1.74;;;;;;;21.06;59.98;101149.50;;;;-49
2021/10/27 17:11:11;;;;;;;2.40;1.65;;;;;;;21.07;60.07;101146.98;;;;-50
2021/10/27 17:14:11;;;;;;;2.19;1.60;;;;;;;21.08;60.17;101147.70;;;;-50
2021/10/27 17:17:11;;;;;;;3.31;1.67;;;;;;;21.08;60.08;101144.47;;;;-57
2021/10/27 17:20:12;;;;;;;4.41;1.80;;;;;;;21.09;60.20;101146.09;;;;-55
2021/10/27 17:23:16;;;;;;;2.09;1.59;;;;;;;21.10;60.09;101147.16;;;;-57
2021/10/27 17:26:11;;;;;;;2.71;1.53;;;;;;;21.12;60.15;101149.95;;;;-54
2021/10/27 17:29:11;;;;;;;2.61;1.71;;;;;;;21.12;60.00;101151.50;;;;-55
2021/10/27 17:32:11;;;;;;;3.37;1.69;;;;;;;21.13;60.14;101158.13;;;;-51
2021/10/27 17:35:13;;;;;;;2.15;1.77;;;;;;;21.14;60.23;101155.76;;;;-49
2021/10/27 17:38:11;;;;;;;3.13;1.77;;;;;;;21.14;60.07;101152.98;;;;-49
2021/10/27 17:41:12;;;;;;;3.08;1.81;;;;;;;21.15;60.07;101157.09;;;;-57
2021/10/27 17:44:11;;;;;;;3.16;1.83;;;;;;;21.16;59.76;101157.58;;;;-50
2021/10/27 17:47:15;;;;;;;2.66;1.69;;;;;;;21.14;59.71;101156.66;;;;-44
2021/10/27 17:50:58;;;;;;;2.09;1.77;;;;;;;21.14;59.58;101157.55;;;;-44
2021/10/27 17:59:11;;;;;;;2.11;1.68;;;;;;;21.12;59.51;101158.34;;;;-49
2021/10/27 18:02:11;;;;;;;2.00;1.70;;;;;;;21.11;59.46;101161.36;;;;-48
2021/10/27 18:05:11;;;;;;;2.98;1.77;;;;;;;21.11;59.46;101161.69;;;;-56
2021/10/27 18:08:14;;;;;;;1.77;1.65;;;;;;;21.09;59.39;101161.50;;;;-44
2021/10/27 18:11:12;;;;;;;2.08;1.75;;;;;;;21.09;59.43;101162.81;;;;-50
2021/10/27 18:14:13;;;;;;;1.71;1.59;;;;;;;21.08;59.38;101162.63;;;;-44
2021/10/27 18:17:13;;;;;;;3.01;1.88;;;;;;;21.07;59.43;101164.66;;;;-44
2021/10/27 18:20:12;;;;;;;2.27;1.75;;;;;;;21.07;59.41;101164.09;;;;-44
2021/10/27 18:23:25;;;;;;;1.99;1.79;;;;;;;21.07;59.35;101160.50;;;;-50
2021/10/27 18:26:32;;;;;;;2.01;1.81;;;;;;;21.06;59.34;101161.05;;;;-50
2021/10/27 18:38:14;;;;;;;1.90;1.78;;;;;;;21.03;59.28;101153.86;;;;-56
2021/10/27 18:41:18;;;;;;;2.30;1.81;;;;;;;21.03;59.30;101154.18;;;;-58
2021/10/27 18:44:11;;;;;;;2.61;2.00;;;;;;;21.03;59.33;101155.41;;;;-50
2021/10/27 18:47:11;;;;;;;3.45;2.00;;;;;;;21.02;59.35;101147.39;;;;-48
2021/10/27 18:50:12;;;;;;;2.47;1.89;;;;;;;21.01;59.31;101147.08;;;;-47
2021/10/27 18:53:19;;;;;;;2.02;1.81;;;;;;;21.00;59.30;101143.41;;;;-48
2021/10/27 18:56:18;;;;;;;2.05;1.85;;;;;;;20.99;59.40;101144.84;;;;-47
2021/10/27 18:59:19;;;;;;;2.09;1.89;;;;;;;20.99;59.36;101142.41;;;;-57
2021/10/27 19:02:15;;;;;;;3.39;2.03;;;;;;;20.98;59.37;101145.31;;;;-58
2021/10/27 19:11:15;;;;;;;2.13;1.93;;;;;;;20.93;59.38;101135.81;;;;-56
2021/10/27 19:14:20;;;;;;;2.23;1.99;;;;;;;20.92;59.35;101134.59;;;;-56
2021/10/27 19:17:11;;;;;;;2.42;2.05;;;;;;;20.90;59.40;101135.39;;;;-57
2021/10/27 19:20:11;;;;;;;2.19;1.99;;;;;;;20.90;59.39;101136.20;;;;-58
2021/10/27 19:23:11;;;;;;;3.63;2.11;;;;;;;20.87;59.40;101140.39;;;;-47
2021/10/27 19:26:15;;;;;;;2.51;2.31;;;;;;;20.85;59.43;101134.09;;;;-52
2021/10/27 19:29:16;;;;;;;5.99;2.83;;;;;;;20.84;59.12;101131.33;;;;-56
2021/10/27 19:32:34;;;;;;;6.29;3.07;;;;;;;20.82;59.12;101126.33;;;;-52
2021/10/27 19:35:29;;;;;;;7.61;3.13;;;;;;;20.81;59.16;101128.42;;;;-47
2021/10/27 20:09:23;;;;;;;8.50;5.57;;;;;;;20.72;59.26;101110.33;;;;-52
2021/10/27 20:12:38;;;;;;;7.36;5.39;;;;;;;20.71;59.25;101111.47;;;;-50
2021/10/27 20:24:14;;;;;;;8.64;6.11;;;;;;;20.69;59.36;101101.72;;;;-55
2021/10/27 20:27:29;;;;;;;8.73;6.02;;;;;;;20.67;59.33;101102.13;;;;-53
2021/10/27 20:30:41;;;;;;;9.54;6.34;;;;;;;20.67;59.31;101102.14;;;;-52
2021/10/27 20:50:28;;;;;;;9.49;6.51;;;;;;;20.63;59.40;101101.76;;;;-54
2021/10/27 20:53:19;;;;;;;10.55;7.05;;;;;;;20.62;59.38;101098.56;;;;-56
2021/10/27 20:56:15;;;;;;;10.33;6.49;;;;;;;20.63;59.32;101095.41;;;;-60
2021/10/27 20:59:30;;;;;;;9.82;6.66;;;;;;;20.62;59.30;101094.08;;;;-60
2021/10/27 21:02:26;;;;;;;9.94;6.58;;;;;;;20.61;59.34;101095.92;;;;-61
2021/10/27 21:14:11;;;;;;;9.47;6.19;;;;;;;20.59;59.30;101091.78;;;;-55
2021/10/27 21:17:11;;;;;;;9.73;6.70;;;;;;;20.58;59.39;101090.28;;;;-59
2021/10/27 21:20:11;;;;;;;11.67;6.72;;;;;;;20.58;59.30;101090.09;;;;-50
2021/10/27 21:23:11;;;;;;;9.32;6.73;;;;;;;20.56;59.32;101091.13;;;;-54
2021/10/27 21:26:11;;;;;;;9.38;6.47;;;;;;;20.56;59.38;101089.33;;;;-52
2021/10/27 21:29:18;;;;;;;11.86;6.78;;;;;;;20.56;59.43;101091.37;;;;-49
2021/10/27 21:32:27;;;;;;;10.40;6.49;;;;;;;20.54;59.40;101087.71;;;;-51